createdAt,value
2022-08-30T00:00:11.893Z,21.59
2022-08-30T00:02:39.089Z,21.53
2022-08-30T00:05:06.088Z,21.56
2022-08-30T00:07:32.908Z,21.62
2022-08-30T00:09:59.724Z,21.57
2022-08-30T00:12:26.694Z,21.42
2022-08-30T00:14:53.824Z,21.50
2022-08-30T00:17:20.400Z,21.56
2022-08-30T00:19:46.931Z,21.44
2022-08-30T00:22:13.603Z,21.53
2022-08-30T00:24:40.135Z,21.56
2022-08-30T00:27:06.665Z,21.36
2022-08-30T00:29:33.187Z,21.49
2022-08-30T00:32:01.159Z,21.36
2022-08-30T00:34:28.027Z,21.46
2022-08-30T00:36:54.569Z,21.42
2022-08-30T00:39:21.235Z,21.42
2022-08-30T00:41:48.593Z,21.41
2022-08-30T00:44:15.365Z,21.38
2022-08-30T00:46:42.028Z,21.41
2022-08-30T00:49:11.615Z,21.32
2022-08-30T00:51:40.481Z,21.20
2022-08-30T00:54:07.913Z,21.37
2022-08-30T00:56:35.784Z,21.26
2022-08-30T00:59:05.125Z,21.24
2022-08-30T01:01:34.273Z,21.21
2022-08-30T01:04:01.454Z,21.17
2022-08-30T01:06:32.578Z,21.17
2022-08-30T01:09:00.893Z,21.22
2022-08-30T01:11:28.156Z,21.21
2022-08-30T01:13:56.137Z,21.03
2022-08-30T01:16:25.288Z,21.12
2022-08-30T01:18:57.440Z,21.14
2022-08-30T01:21:36.905Z,21.14
2022-08-30T01:24:05.784Z,21.07
2022-08-30T01:26:34.705Z,21.02
2022-08-30T01:29:10.114Z,21.05
2022-08-30T01:31:36.944Z,20.85
2022-08-30T01:34:07.517Z,20.98
2022-08-30T01:36:37.666Z,21.00
2022-08-30T01:39:13.635Z,20.85
2022-08-30T01:41:40.328Z,20.84
2022-08-30T01:44:10.181Z,20.90
2022-08-30T01:46:41.231Z,20.84
2022-08-30T01:49:11.035Z,20.51
2022-08-30T01:51:38.438Z,20.67
2022-08-30T01:54:06.120Z,20.72
2022-08-30T01:56:32.730Z,20.79
2022-08-30T01:59:02.813Z,20.67
2022-08-30T02:01:32.864Z,20.70
2022-08-30T02:04:00.601Z,20.58
2022-08-30T02:06:27.339Z,20.69
2022-08-30T02:08:53.853Z,20.60
2022-08-30T02:11:20.829Z,20.66
2022-08-30T02:13:47.675Z,20.64
2022-08-30T02:16:18.723Z,20.67
2022-08-30T02:18:45.475Z,20.67
2022-08-30T02:21:13.105Z,20.68
2022-08-30T02:23:39.673Z,20.65
2022-08-30T02:26:06.506Z,20.66
2022-08-30T02:28:33.298Z,20.69
2022-08-30T02:31:01.026Z,20.64
2022-08-30T02:33:28.021Z,20.53
2022-08-30T02:35:56.036Z,20.58
2022-08-30T02:38:23.738Z,20.57
2022-08-30T02:40:51.179Z,20.50
2022-08-30T02:43:18.296Z,20.53
2022-08-30T02:45:45.069Z,20.58
2022-08-30T02:48:11.663Z,20.56
2022-08-30T02:50:42.721Z,20.57
2022-08-30T02:53:09.501Z,20.60
2022-08-30T02:55:40.682Z,20.53
2022-08-30T02:58:08.033Z,20.32
2022-08-30T03:00:35.067Z,20.17
2022-08-30T03:03:03.955Z,20.44
2022-08-30T03:05:32.945Z,20.48
2022-08-30T03:08:00.375Z,20.50
2022-08-30T03:10:28.638Z,20.38
2022-08-30T03:12:56.050Z,20.32
2022-08-30T03:15:25.345Z,20.40
2022-08-30T03:17:53.192Z,20.35
2022-08-30T03:20:21.310Z,20.20
2022-08-30T03:22:47.968Z,20.22
2022-08-30T03:25:15.156Z,20.43
2022-08-30T03:27:41.699Z,20.43
2022-08-30T03:30:09.231Z,20.38
2022-08-30T03:32:36.180Z,20.37
2022-08-30T03:35:02.742Z,20.25
2022-08-30T03:37:29.249Z,20.26
2022-08-30T03:39:56.410Z,20.29
2022-08-30T03:42:24.240Z,20.28
2022-08-30T03:44:51.807Z,20.26
2022-08-30T03:47:18.384Z,20.14
2022-08-30T03:49:46.185Z,20.23
2022-08-30T03:52:12.735Z,20.28
2022-08-30T03:54:40.156Z,20.28
2022-08-30T03:57:07.227Z,20.23
2022-08-30T03:59:33.814Z,20.22
2022-08-30T04:02:00.426Z,20.25
2022-08-30T04:04:27.070Z,20.26
2022-08-30T04:06:53.640Z,20.15
2022-08-30T04:09:20.182Z,20.13
2022-08-30T04:11:46.882Z,19.92
2022-08-30T04:14:13.922Z,20.03
2022-08-30T04:16:40.818Z,20.09
2022-08-30T04:19:07.454Z,19.81
2022-08-30T04:21:35.530Z,19.64
2022-08-30T04:24:09.576Z,19.69
2022-08-30T04:26:36.204Z,19.85
2022-08-30T04:29:03.419Z,19.97
2022-08-30T04:31:31.262Z,20.09
2022-08-30T04:33:57.843Z,20.08
2022-08-30T04:36:24.386Z,20.04
2022-08-30T04:38:50.964Z,20.11
2022-08-30T04:41:19.440Z,20.01
2022-08-30T04:43:47.339Z,20.07
2022-08-30T04:46:14.062Z,19.90
2022-08-30T04:48:40.735Z,19.84
2022-08-30T04:51:09.979Z,19.94
2022-08-30T04:53:37.389Z,19.75
2022-08-30T04:56:09.503Z,19.90
2022-08-30T04:58:36.091Z,19.86
2022-08-30T05:01:03.323Z,19.87
2022-08-30T05:03:31.073Z,19.92
2022-08-30T05:05:57.680Z,19.74
2022-08-30T05:08:24.979Z,19.86
2022-08-30T05:10:52.480Z,19.90
2022-08-30T05:13:21.260Z,19.89
2022-08-30T05:16:03.397Z,19.81
2022-08-30T05:18:30.069Z,19.70
2022-08-30T05:21:25.481Z,19.81
2022-08-30T05:23:54.399Z,19.78
2022-08-30T05:26:25.059Z,19.53
2022-08-30T05:28:52.216Z,19.62
2022-08-30T05:31:24.952Z,19.88
2022-08-30T05:33:53.911Z,19.93
2022-08-30T05:36:23.767Z,20.08
2022-08-30T05:38:50.713Z,20.04
2022-08-30T05:41:19.605Z,20.08
2022-08-30T05:43:47.045Z,20.23
2022-08-30T05:46:19.182Z,20.35
2022-08-30T05:48:46.897Z,20.41
2022-08-30T05:51:17.555Z,20.48
2022-08-30T05:53:45.292Z,20.48
2022-08-30T05:56:14.603Z,20.55
2022-08-30T05:58:42.067Z,20.58
2022-08-30T06:01:22.563Z,20.46
2022-08-30T06:03:51.229Z,20.66
2022-08-30T06:06:17.903Z,20.98
2022-08-30T06:08:48.402Z,20.94
2022-08-30T06:11:18.450Z,21.00
2022-08-30T06:13:45.864Z,20.99
2022-08-30T06:16:14.173Z,20.95
2022-08-30T06:18:40.765Z,21.06
2022-08-30T06:21:07.499Z,21.07
2022-08-30T06:23:34.774Z,21.26
2022-08-30T06:26:06.693Z,21.44
2022-08-30T06:28:34.329Z,21.45
2022-08-30T06:31:00.903Z,21.50
2022-08-30T06:33:27.515Z,21.51
2022-08-30T06:35:58.275Z,21.47
2022-08-30T06:38:26.021Z,21.67
2022-08-30T06:40:52.543Z,21.53
2022-08-30T06:43:19.087Z,21.37
2022-08-30T06:45:45.688Z,21.20
2022-08-30T06:48:12.388Z,21.24
2022-08-30T06:50:38.981Z,21.33
2022-08-30T06:53:06.086Z,21.42
2022-08-30T06:55:33.437Z,21.49
2022-08-30T06:58:01.236Z,21.58
2022-08-30T07:00:28.896Z,21.58
2022-08-30T07:02:55.793Z,21.44
2022-08-30T07:05:23.617Z,21.58
2022-08-30T07:07:53.312Z,21.79
2022-08-30T07:10:21.386Z,21.96
2022-08-30T07:12:48.304Z,22.19
2022-08-30T07:15:15.649Z,22.27
2022-08-30T07:18:00.796Z,22.22
2022-08-30T07:20:27.465Z,22.28
2022-08-30T07:22:54.205Z,22.07
2022-08-30T07:25:20.821Z,22.23
2022-08-30T07:27:47.559Z,22.36
2022-08-30T07:30:14.129Z,22.36
2022-08-30T07:32:40.782Z,22.41
2022-08-30T07:35:07.606Z,22.39
2022-08-30T07:37:34.280Z,22.54
2022-08-30T07:40:00.929Z,22.64
2022-08-30T07:42:27.567Z,22.65
2022-08-30T07:44:56.735Z,22.57
2022-08-30T07:47:23.589Z,22.44
2022-08-30T07:49:50.151Z,22.44
2022-08-30T07:52:16.755Z,22.59
2022-08-30T07:54:43.399Z,22.70
2022-08-30T07:57:11.314Z,22.69
2022-08-30T07:59:37.883Z,22.73
2022-08-30T08:02:04.841Z,22.54
2022-08-30T08:04:31.622Z,22.48
2022-08-30T08:06:58.313Z,22.41
2022-08-30T08:09:24.842Z,22.71
2022-08-30T08:11:51.398Z,22.67
2022-08-30T08:14:18.080Z,22.74
2022-08-30T08:16:46.593Z,22.93
2022-08-30T08:19:13.140Z,22.82
2022-08-30T08:21:39.768Z,22.98
2022-08-30T08:24:06.362Z,22.92
2022-08-30T08:26:36.605Z,22.93
2022-08-30T08:29:04.320Z,23.01
2022-08-30T08:31:33.733Z,23.10
2022-08-30T08:34:02.564Z,23.10
2022-08-30T08:36:31.195Z,23.07
2022-08-30T08:38:58.566Z,22.80
2022-08-30T08:41:43.715Z,23.08
2022-08-30T08:44:19.283Z,22.99
2022-08-30T08:46:57.614Z,23.19
2022-08-30T08:49:25.401Z,23.23
2022-08-30T08:52:10.637Z,23.36
2022-08-30T08:54:44.650Z,23.41
2022-08-30T08:57:13.928Z,23.41
2022-08-30T08:59:44.778Z,23.59
2022-08-30T09:02:24.995Z,23.60
2022-08-30T09:04:57.982Z,23.61
2022-08-30T09:07:29.623Z,23.60
2022-08-30T09:10:00.485Z,23.77
2022-08-30T09:12:27.669Z,23.83
2022-08-30T09:15:01.556Z,23.83
2022-08-30T09:17:28.575Z,23.89
2022-08-30T09:19:55.591Z,23.93
2022-08-30T09:22:36.354Z,24.23
2022-08-30T09:25:11.748Z,24.40
2022-08-30T09:27:40.158Z,24.47
2022-08-30T09:30:30.096Z,24.32
2022-08-30T09:33:06.060Z,24.18
2022-08-30T09:35:34.484Z,24.27
2022-08-30T09:38:16.839Z,24.44
2022-08-30T09:40:50.569Z,24.32
2022-08-30T09:43:17.439Z,24.26
2022-08-30T09:45:47.858Z,24.04
2022-08-30T09:48:40.196Z,24.34
2022-08-30T09:51:15.808Z,24.39
2022-08-30T09:54:17.353Z,24.25
2022-08-30T09:57:12.971Z,24.60
2022-08-30T09:59:48.685Z,24.37
2022-08-30T10:02:33.731Z,24.75
2022-08-30T10:05:12.222Z,24.57
2022-08-30T10:08:04.973Z,24.42
2022-08-30T10:10:55.034Z,24.82
2022-08-30T10:13:47.006Z,24.57
2022-08-30T10:16:21.013Z,24.75
2022-08-30T10:19:16.123Z,24.91
2022-08-30T10:21:49.983Z,24.87
2022-08-30T10:24:24.604Z,24.79
2022-08-30T10:27:24.842Z,24.98
2022-08-30T10:30:00.743Z,24.96
2022-08-30T10:32:39.537Z,24.85
2022-08-30T10:35:19.211Z,24.93
2022-08-30T10:37:59.045Z,24.71
2022-08-30T10:40:54.627Z,25.09
2022-08-30T10:43:31.808Z,25.01
2022-08-30T10:46:03.875Z,25.13
2022-08-30T10:48:36.672Z,25.18
2022-08-30T10:51:12.788Z,25.39
2022-08-30T10:53:57.705Z,25.41
2022-08-30T10:56:29.314Z,25.36
2022-08-30T10:58:58.331Z,25.36
2022-08-30T11:01:47.979Z,25.33
2022-08-30T11:04:24.965Z,25.40
2022-08-30T11:06:54.035Z,25.45
2022-08-30T11:09:21.557Z,25.44
2022-08-30T11:12:22.144Z,25.50
2022-08-30T11:14:49.174Z,25.63
2022-08-30T11:17:32.339Z,25.27
2022-08-30T11:20:02.535Z,25.39
2022-08-30T11:22:38.796Z,25.60
2022-08-30T11:25:14.266Z,25.49
2022-08-30T11:27:58.769Z,25.55
2022-08-30T11:30:26.411Z,25.65
2022-08-30T11:32:59.961Z,25.07
2022-08-30T11:35:48.429Z,25.49
2022-08-30T11:38:20.145Z,25.62
2022-08-30T11:40:51.095Z,25.53
2022-08-30T11:43:36.536Z,25.60
2022-08-30T11:46:19.349Z,25.62
2022-08-30T11:48:54.412Z,25.56
2022-08-30T11:51:40.909Z,25.85
2022-08-30T11:54:18.373Z,25.82
2022-08-30T11:56:54.460Z,25.68
2022-08-30T11:59:33.219Z,25.79
2022-08-30T12:02:01.441Z,25.68
2022-08-30T12:04:37.459Z,25.64
2022-08-30T12:07:07.797Z,25.78
2022-08-30T12:09:35.116Z,25.96
2022-08-30T12:12:30.700Z,25.85
2022-08-30T12:14:58.030Z,25.71
2022-08-30T12:17:50.781Z,25.80
2022-08-30T12:20:26.731Z,26.17
2022-08-30T12:22:54.720Z,26.17
2022-08-30T12:25:30.045Z,25.72
2022-08-30T12:28:11.885Z,25.75
2022-08-30T12:30:40.095Z,26.17
2022-08-30T12:33:11.984Z,26.01
2022-08-30T12:35:40.675Z,26.04
2022-08-30T12:38:16.509Z,26.25
2022-08-30T12:40:57.771Z,26.18
2022-08-30T12:43:33.114Z,26.17
2022-08-30T12:46:11.889Z,26.36
2022-08-30T12:48:41.164Z,26.51
2022-08-30T12:51:10.837Z,26.22
2022-08-30T12:53:44.266Z,26.39
2022-08-30T12:56:13.757Z,26.38
2022-08-30T12:58:43.438Z,26.24
2022-08-30T13:01:26.596Z,26.53
2022-08-30T13:03:59.734Z,26.54
2022-08-30T13:06:52.773Z,26.24
2022-08-30T13:09:38.941Z,26.22
2022-08-30T13:12:30.817Z,26.59
2022-08-30T13:15:17.388Z,26.78
2022-08-30T13:17:45.184Z,26.47
2022-08-30T13:20:44.532Z,26.80
2022-08-30T13:23:11.242Z,26.80
2022-08-30T13:25:39.563Z,26.58
2022-08-30T13:28:07.395Z,26.81
2022-08-30T13:30:34.247Z,26.73
2022-08-30T13:33:02.293Z,26.95
2022-08-30T13:35:30.442Z,26.79
2022-08-30T13:37:59.513Z,26.77
2022-08-30T13:40:26.142Z,26.84
2022-08-30T13:42:52.812Z,26.93
2022-08-30T13:48:07.202Z,26.97
2022-08-30T13:50:33.782Z,26.99
2022-08-30T13:53:00.380Z,27.04
2022-08-30T13:55:27.776Z,27.10
2022-08-30T13:57:55.426Z,27.14
2022-08-30T14:00:23.466Z,26.81
2022-08-30T14:02:54.790Z,27.11
2022-08-30T14:05:49.608Z,27.06
2022-08-30T14:11:12.436Z,27.13
2022-08-30T14:14:14.652Z,27.02
2022-08-30T14:16:27.989Z,26.89
2022-08-30T14:18:56.183Z,26.88
2022-08-30T14:21:24.457Z,27.25
2022-08-30T14:23:58.713Z,27.15
2022-08-30T14:26:45.791Z,27.04
2022-08-30T14:29:14.728Z,27.25
2022-08-30T14:31:41.822Z,27.29
2022-08-30T14:34:10.935Z,27.24
2022-08-30T14:36:40.829Z,27.18
2022-08-30T14:39:12.189Z,27.21
2022-08-30T14:41:46.098Z,27.12
2022-08-30T14:44:14.869Z,26.93
2022-08-30T14:46:42.903Z,26.85
2022-08-30T14:49:11.503Z,26.93
2022-08-30T14:51:38.634Z,26.90
2022-08-30T14:54:05.253Z,26.90
2022-08-30T14:56:31.828Z,27.08
2022-08-30T14:59:00.613Z,27.11
2022-08-30T15:01:28.541Z,27.18
2022-08-30T15:03:55.977Z,27.22
2022-08-30T15:06:22.744Z,27.01
2022-08-30T15:08:53.747Z,26.91
2022-08-30T15:11:21.713Z,27.04
2022-08-30T15:13:48.904Z,27.02
2022-08-30T15:16:24.567Z,27.08
2022-08-30T15:18:51.246Z,26.85
2022-08-30T15:21:33.316Z,27.04
2022-08-30T15:24:01.704Z,26.82
2022-08-30T15:26:28.945Z,26.79
2022-08-30T15:28:56.733Z,26.87
2022-08-30T15:31:28.147Z,26.86
2022-08-30T15:33:55.021Z,26.79
2022-08-30T15:36:23.285Z,26.89
2022-08-30T15:38:49.876Z,26.62
2022-08-30T15:41:16.592Z,26.46
2022-08-30T15:43:43.194Z,26.69
2022-08-30T15:46:17.437Z,26.54
2022-08-30T15:48:46.145Z,26.52
2022-08-30T15:51:13.500Z,26.35
2022-08-30T15:53:40.416Z,26.32
2022-08-30T15:56:07.313Z,26.39
2022-08-30T15:58:35.193Z,26.35
2022-08-30T16:01:02.187Z,26.27
2022-08-30T16:03:29.470Z,26.28
2022-08-30T16:05:56.848Z,26.01
2022-08-30T16:08:23.819Z,26.26
2022-08-30T16:10:52.481Z,26.25
2022-08-30T16:13:19.141Z,26.19
2022-08-30T16:15:46.095Z,26.05
2022-08-30T16:18:14.594Z,26.24
2022-08-30T16:20:42.033Z,26.04
2022-08-30T16:23:10.294Z,26.12
2022-08-30T16:25:40.882Z,26.21
2022-08-30T16:28:09.505Z,26.08
2022-08-30T16:30:36.494Z,26.12
2022-08-30T16:33:03.120Z,26.17
2022-08-30T16:35:29.651Z,26.40
2022-08-30T16:37:56.223Z,26.22
2022-08-30T16:40:22.824Z,26.15
2022-08-30T16:42:50.688Z,26.18
2022-08-30T16:45:17.996Z,26.24
2022-08-30T16:47:45.905Z,26.56
2022-08-30T16:50:13.094Z,26.28
2022-08-30T16:52:43.973Z,26.01
2022-08-30T16:55:10.785Z,26.10
2022-08-30T16:57:38.619Z,26.14
2022-08-30T17:00:13.235Z,26.11
2022-08-30T17:02:40.884Z,26.44
2022-08-30T17:05:14.677Z,26.39
2022-08-30T17:07:41.970Z,26.34
2022-08-30T17:10:08.974Z,26.36
2022-08-30T17:12:35.690Z,26.20
2022-08-30T17:15:05.599Z,25.96
2022-08-30T17:17:32.553Z,25.67
2022-08-30T17:19:59.141Z,25.80
2022-08-30T17:22:26.261Z,25.40
2022-08-30T17:24:53.045Z,25.71
2022-08-30T17:27:19.762Z,25.80
2022-08-30T17:29:46.333Z,26.17
2022-08-30T17:32:12.952Z,26.08
2022-08-30T17:34:40.000Z,26.46
2022-08-30T17:37:06.648Z,26.25
2022-08-30T17:39:33.872Z,25.92
2022-08-30T17:42:00.850Z,26.04
2022-08-30T17:44:30.368Z,25.99
2022-08-30T17:46:57.599Z,26.24
2022-08-30T17:49:25.011Z,26.27
2022-08-30T17:51:56.083Z,25.56
2022-08-30T17:54:24.357Z,26.10
2022-08-30T17:56:52.305Z,26.55
2022-08-30T17:59:19.475Z,26.58
2022-08-30T18:01:51.842Z,26.18
2022-08-30T18:04:19.888Z,26.30
2022-08-30T18:06:47.946Z,26.36
2022-08-30T18:09:14.670Z,26.04
2022-08-30T18:11:41.249Z,26.36
2022-08-30T18:14:11.105Z,25.80
2022-08-30T18:16:50.245Z,26.13
2022-08-30T18:19:28.669Z,25.90
2022-08-30T18:21:55.681Z,25.29
2022-08-30T18:24:23.343Z,25.47
2022-08-30T18:26:50.319Z,26.14
2022-08-30T18:29:28.924Z,25.73
2022-08-30T18:32:02.213Z,25.47
2022-08-30T18:34:29.780Z,25.60
2022-08-30T18:36:56.913Z,25.46
2022-08-30T18:39:23.722Z,25.38
2022-08-30T18:41:51.011Z,24.90
2022-08-30T18:44:29.238Z,25.66
2022-08-30T18:46:57.734Z,25.57
2022-08-30T18:49:25.632Z,24.82
2022-08-30T18:51:52.674Z,25.62
2022-08-30T18:54:19.364Z,25.61
2022-08-30T18:56:46.130Z,25.21
2022-08-30T18:59:12.850Z,25.95
2022-08-30T19:01:40.514Z,25.78
2022-08-30T19:04:07.675Z,25.28
2022-08-30T19:06:34.734Z,25.37
2022-08-30T19:09:04.650Z,25.03
2022-08-30T19:11:36.564Z,24.69
2022-08-30T19:14:05.398Z,25.13
2022-08-30T19:16:34.399Z,25.54
2022-08-30T19:19:01.060Z,25.74
2022-08-30T19:21:27.772Z,25.33
2022-08-30T19:23:55.212Z,25.04
2022-08-30T19:26:21.904Z,25.20
2022-08-30T19:28:48.593Z,25.24
2022-08-30T19:31:15.179Z,25.04
2022-08-30T19:33:41.779Z,25.19
2022-08-30T19:36:08.498Z,25.25
2022-08-30T19:38:36.731Z,24.58
2022-08-30T19:41:04.274Z,24.49
2022-08-30T19:43:31.233Z,24.35
2022-08-30T19:45:59.499Z,25.08
2022-08-30T19:48:32.033Z,24.83
2022-08-30T19:50:59.894Z,24.64
2022-08-30T19:53:27.092Z,25.29
2022-08-30T19:55:54.321Z,24.76
2022-08-30T19:58:20.871Z,24.69
2022-08-30T20:00:57.783Z,25.22
2022-08-30T20:03:27.812Z,25.17
2022-08-30T20:05:54.861Z,24.49
2022-08-30T20:08:21.957Z,24.33
2022-08-30T20:10:48.865Z,24.63
2022-08-30T20:13:17.148Z,24.92
2022-08-30T20:15:57.771Z,24.35
2022-08-30T20:18:26.390Z,24.47
2022-08-30T20:20:53.446Z,24.50
2022-08-30T20:23:22.740Z,24.70
2022-08-30T20:25:55.382Z,24.58
2022-08-30T20:28:23.647Z,24.70
2022-08-30T20:30:51.198Z,24.15
2022-08-30T20:33:19.124Z,23.81
2022-08-30T20:35:49.389Z,24.69
2022-08-30T20:38:21.158Z,24.64
2022-08-30T20:40:50.377Z,24.92
2022-08-30T20:43:22.684Z,24.48
2022-08-30T20:45:49.777Z,24.38
2022-08-30T20:48:17.802Z,23.98
2022-08-30T20:50:44.789Z,24.65
2022-08-30T20:53:12.589Z,24.34
2022-08-30T20:55:43.990Z,24.36
2022-08-30T20:58:11.141Z,24.50
2022-08-30T21:00:38.257Z,24.36
2022-08-30T21:03:13.331Z,23.97
2022-08-30T21:05:53.169Z,24.38
2022-08-30T21:08:20.142Z,23.96
2022-08-30T21:10:47.819Z,24.24
2022-08-30T21:13:14.702Z,24.37
2022-08-30T21:15:45.664Z,24.22
2022-08-30T21:18:13.802Z,24.22
2022-08-30T21:20:40.473Z,24.20
2022-08-30T21:23:07.076Z,23.84
2022-08-30T21:25:34.120Z,23.97
2022-08-30T21:28:00.687Z,23.85
2022-08-30T21:30:27.276Z,23.79
2022-08-30T21:32:53.938Z,23.88
2022-08-30T21:35:39.293Z,23.91
2022-08-30T21:38:08.817Z,23.83
2022-08-30T21:40:36.411Z,24.01
2022-08-30T21:43:05.980Z,23.65
2022-08-30T21:45:36.867Z,23.73
2022-08-30T21:48:04.181Z,23.95
2022-08-30T21:50:30.778Z,23.58
2022-08-30T21:52:57.319Z,23.49
2022-08-30T21:55:24.013Z,23.59
2022-08-30T21:57:50.590Z,23.12
2022-08-30T22:00:20.636Z,23.59
2022-08-30T22:02:49.260Z,23.59
2022-08-30T22:05:20.527Z,23.66
2022-08-30T22:07:47.106Z,23.62
2022-08-30T22:10:13.643Z,23.39
2022-08-30T22:12:41.617Z,23.47
2022-08-30T22:15:08.897Z,23.57
2022-08-30T22:17:35.465Z,23.12
2022-08-30T22:20:02.096Z,23.52
2022-08-30T22:22:28.612Z,22.91
2022-08-30T22:24:55.093Z,22.49
2022-08-30T22:27:21.635Z,23.28
2022-08-30T22:29:48.231Z,23.25
2022-08-30T22:32:14.908Z,23.18
2022-08-30T22:34:44.896Z,23.12
2022-08-30T22:37:11.403Z,23.27
2022-08-30T22:39:37.900Z,22.74
2022-08-30T22:42:05.120Z,23.15
2022-08-30T22:44:31.967Z,23.17
2022-08-30T22:46:58.517Z,23.34
2022-08-30T22:49:26.101Z,23.23
2022-08-30T22:51:52.637Z,23.28
2022-08-30T22:54:19.182Z,23.35
2022-08-30T22:56:46.634Z,23.12
2022-08-30T22:59:13.189Z,23.12
2022-08-30T23:01:44.479Z,23.22
2022-08-30T23:04:11.646Z,23.17
2022-08-30T23:06:38.331Z,23.21
2022-08-30T23:09:06.638Z,22.62
2022-08-30T23:11:33.921Z,22.86
2022-08-30T23:14:02.070Z,22.84
2022-08-30T23:16:28.790Z,22.89
2022-08-30T23:18:55.314Z,23.29
2022-08-30T23:21:25.805Z,22.72
2022-08-30T23:24:12.672Z,22.72
2022-08-30T23:26:58.619Z,22.82
2022-08-30T23:29:44.048Z,22.66
2022-08-30T23:32:29.985Z,22.68
2022-08-30T23:35:14.898Z,22.66
2022-08-30T23:38:00.257Z,22.83
2022-08-30T23:40:45.338Z,22.86
2022-08-30T23:43:30.992Z,23.02
2022-08-30T23:46:19.500Z,22.65
2022-08-30T23:49:08.117Z,22.94
2022-08-30T23:51:55.517Z,22.98
2022-08-30T23:54:41.258Z,22.96
2022-08-30T23:57:26.597Z,22.94
